Terminal Aerodrome Forecast
Issued by NWS

Home | Current Version | Previous Version | Graphics & Text | Print | Product List | Glossary On
Versions: 1 2 3 4 5 6 7 8 9 10 11 12 13 14
000
FTUS43 KFGF 012100 AAA
TAFBJI
TAF AMD
KBJI 012146Z 0122/0218 24012KT P6SM BKN060
      TEMPO 0122/0124 -SN BKN025
     FM020300 27006KT P6SM SCT250
     FM020900 21006KT P6SM FEW250=

USA.gov is the U.S. government's official web portal to all federal, state and local government web resources and services.